createdAt,value
2022-12-13T00:02:07.652Z,-1.60
2022-12-13T00:04:36.070Z,-1.70
2022-12-13T00:07:04.365Z,-1.30
2022-12-13T00:09:32.684Z,-1.80
2022-12-13T00:12:01.104Z,-0.80
2022-12-13T00:14:29.401Z,-1.80
2022-12-13T00:16:57.743Z,-1.80
2022-12-13T00:19:27.551Z,-1.70
2022-12-13T00:21:59.329Z,-1.40
2022-12-13T00:24:27.713Z,-1.20
2022-12-13T00:26:56.214Z,-1.80
2022-12-13T00:29:24.584Z,-1.80
2022-12-13T00:31:59.898Z,-1.80
2022-12-13T00:34:30.313Z,-1.50
2022-12-13T00:37:00.511Z,-1.80
2022-12-13T00:39:29.146Z,-1.90
2022-12-13T00:41:57.858Z,-1.90
2022-12-13T00:44:26.524Z,-1.80
2022-12-13T00:46:55.001Z,-1.80
2022-12-13T00:49:23.477Z,-1.70
2022-12-13T00:51:53.461Z,-1.50
2022-12-13T00:54:21.838Z,-1.60
2022-12-13T00:56:51.362Z,-1.70
2022-12-13T00:59:19.650Z,-1.40
2022-12-13T01:01:48.359Z,-1.10
2022-12-13T01:04:16.796Z,-1.70
2022-12-13T01:06:46.638Z,-1.80
2022-12-13T01:09:24.438Z,-1.70
2022-12-13T01:11:52.917Z,-1.20
2022-12-13T01:14:21.150Z,-0.60
2022-12-13T01:16:49.598Z,-1.70
2022-12-13T01:19:18.042Z,-1.90
2022-12-13T01:21:46.312Z,-0.50
2022-12-13T01:24:20.620Z,-1.50
2022-12-13T01:26:51.378Z,-1.90
2022-12-13T01:29:26.725Z,-1.30
2022-12-13T01:31:55.625Z,-1.60
2022-12-13T01:34:26.482Z,-1.40
2022-12-13T01:36:58.352Z,-2.30
2022-12-13T01:39:27.926Z,-1.90
2022-12-13T01:42:02.018Z,-1.50
2022-12-13T01:45:10.081Z,-1.80
2022-12-13T01:47:43.263Z,-1.80
2022-12-13T01:50:16.519Z,-1.80
2022-12-13T01:52:46.279Z,-1.80
2022-12-13T01:55:18.141Z,-1.80
2022-12-13T01:57:50.394Z,-1.80
2022-12-13T02:00:18.950Z,-1.80
2022-12-13T02:02:49.945Z,-1.60
2022-12-13T02:05:26.173Z,-1.80
2022-12-13T02:07:57.190Z,-1.80
2022-12-13T02:10:26.478Z,-1.80
2022-12-13T02:12:56.477Z,-1.50
2022-12-13T02:15:25.186Z,-1.30
2022-12-13T02:18:10.279Z,-1.70
2022-12-13T02:21:03.214Z,-1.70
2022-12-13T02:24:08.701Z,-1.70
2022-12-13T02:27:00.559Z,-1.70
2022-12-13T02:30:08.851Z,-1.70
2022-12-13T02:32:58.822Z,-1.70
2022-12-13T02:35:34.504Z,-1.70
2022-12-13T02:38:11.475Z,-1.70
2022-12-13T02:40:43.284Z,-1.60
2022-12-13T02:43:21.557Z,-1.70
2022-12-13T02:45:53.642Z,-1.30
2022-12-13T02:48:27.504Z,-1.60
2022-12-13T02:50:57.533Z,-1.70
2022-12-13T02:53:30.008Z,-1.50
2022-12-13T02:56:07.975Z,-0.50
2022-12-13T02:58:39.046Z,-1.40
2022-12-13T03:01:40.188Z,-1.50
2022-12-13T03:04:26.112Z,-1.70
2022-12-13T03:07:04.824Z,-1.70
2022-12-13T03:09:51.580Z,-1.70
2022-12-13T03:15:43.494Z,-2.30
2022-12-13T03:18:19.315Z,-1.70
2022-12-13T03:20:50.958Z,-1.70
2022-12-13T03:23:21.449Z,-1.60
2022-12-13T03:25:52.667Z,-1.30
2022-12-13T03:28:24.886Z,-1.60
2022-12-13T03:30:57.140Z,-1.50
2022-12-13T03:33:25.817Z,-1.10
2022-12-13T03:36:01.398Z,-1.60
2022-12-13T03:38:32.412Z,-1.20
2022-12-13T03:41:04.003Z,-1.50
2022-12-13T03:43:55.951Z,-1.50
2022-12-13T03:46:26.017Z,-1.40
2022-12-13T03:48:54.796Z,-1.10
2022-12-13T03:51:26.145Z,-1.50
2022-12-13T03:53:58.763Z,-1.50
2022-12-13T03:56:27.336Z,-1.50
2022-12-13T03:58:55.770Z,-1.50
2022-12-13T04:02:00.823Z,-1.50
2022-12-13T04:04:29.609Z,-1.50
2022-12-13T04:06:59.773Z,-1.50
2022-12-13T04:09:30.198Z,-1.40
2022-12-13T04:15:13.670Z,-0.20
2022-12-13T04:17:51.050Z,-1.50
2022-12-13T04:20:20.073Z,-1.50
2022-12-13T04:23:10.206Z,-1.50
2022-12-13T04:25:45.869Z,-1.50
2022-12-13T04:31:28.695Z,-1.50
2022-12-13T04:38:00.902Z,-1.40
2022-12-13T04:41:33.856Z,-1.30
2022-12-13T04:44:29.006Z,-1.30
2022-12-13T04:47:04.822Z,-1.30
2022-12-13T04:49:56.779Z,-0.70
2022-12-13T04:56:42.669Z,-1.50
2022-12-13T05:25:26.615Z,-1.60
2022-12-13T05:29:05.270Z,-1.60
2022-12-13T05:57:50.703Z,-1.80
2022-12-13T06:01:12.182Z,-1.70
2022-12-13T06:04:22.643Z,-1.70
2022-12-13T06:11:31.224Z,-1.90
2022-12-13T06:26:21.025Z,-1.90
2022-12-13T06:32:55.683Z,-2.00
2022-12-13T06:36:27.258Z,-1.70
2022-12-13T06:39:11.203Z,-2.10
2022-12-13T06:46:00.397Z,-2.20
2022-12-13T06:49:34.467Z,-2.10
2022-12-13T06:52:02.955Z,-2.40
2022-12-13T06:54:42.149Z,-2.20
2022-12-13T06:57:40.796Z,-0.60
2022-12-13T07:00:56.311Z,-2.50
2022-12-13T07:03:33.157Z,-2.40
2022-12-13T07:06:32.517Z,-2.10
2022-12-13T07:13:09.038Z,-2.50
2022-12-13T07:16:36.077Z,-2.40
2022-12-13T07:19:13.471Z,-2.40
2022-12-13T07:22:52.410Z,-2.40
2022-12-13T07:25:26.784Z,-2.40
2022-12-13T07:35:55.130Z,-2.50
2022-12-13T07:39:15.108Z,-2.40
2022-12-13T07:42:44.006Z,-2.30
2022-12-13T07:45:37.939Z,-2.50
2022-12-13T07:48:36.695Z,-2.60
2022-12-13T07:51:21.227Z,-2.60
2022-12-13T07:54:08.673Z,-2.60
2022-12-13T07:57:04.232Z,-1.70
2022-12-13T07:59:41.708Z,-2.60
2022-12-13T08:05:41.877Z,-2.50
2022-12-13T08:11:03.268Z,-2.60
2022-12-13T08:16:39.128Z,-2.60
2022-12-13T08:19:33.428Z,-2.00
2022-12-13T08:22:02.442Z,-2.50
2022-12-13T08:27:45.170Z,-2.60
2022-12-13T08:30:18.933Z,-2.30
2022-12-13T08:36:42.034Z,-2.50
2022-12-13T08:39:20.631Z,-2.10
2022-12-13T08:42:19.427Z,-2.50
2022-12-13T08:48:02.679Z,-2.30
2022-12-13T08:54:11.657Z,-2.40
2022-12-13T08:57:03.066Z,-2.00
2022-12-13T08:59:41.005Z,-2.30
2022-12-13T09:02:15.461Z,-2.30
2022-12-13T09:05:01.738Z,-2.40
2022-12-13T09:07:59.065Z,-2.30
2022-12-13T09:10:43.590Z,-2.50
2022-12-13T09:13:43.311Z,-2.50
2022-12-13T09:16:35.547Z,-1.80
2022-12-13T09:19:25.581Z,-2.50
2022-12-13T09:22:48.777Z,-2.60
2022-12-13T09:27:43.912Z,-2.40
2022-12-13T09:30:06.792Z,-2.40
2022-12-13T09:35:46.839Z,-2.40
2022-12-13T09:38:30.782Z,-2.30
2022-12-13T09:41:45.324Z,-2.30
2022-12-13T09:45:02.149Z,-2.40
2022-12-13T09:47:47.129Z,-1.90
2022-12-13T09:50:38.604Z,-2.40
2022-12-13T10:00:56.924Z,-2.40
2022-12-13T10:04:04.112Z,-2.50
2022-12-13T10:06:44.701Z,-2.30
2022-12-13T10:13:55.064Z,-2.60
2022-12-13T10:16:42.118Z,-2.70
2022-12-13T10:19:32.389Z,-2.40
2022-12-13T10:22:11.504Z,-2.50
2022-12-13T10:25:51.502Z,-2.70
2022-12-13T10:29:26.783Z,-2.70
2022-12-13T10:32:10.559Z,-2.70
2022-12-13T10:34:55.701Z,-2.60
2022-12-13T10:42:50.743Z,-2.60
2022-12-13T10:45:28.236Z,-2.70
2022-12-13T10:52:17.107Z,-2.20
2022-12-13T10:55:48.073Z,-2.50
2022-12-13T11:01:34.295Z,-2.60
2022-12-13T11:04:05.429Z,-2.60
2022-12-13T11:06:44.002Z,-2.30
2022-12-13T11:13:12.217Z,-2.50
2022-12-13T11:16:02.083Z,-2.60
2022-12-13T11:19:22.255Z,-2.90
2022-12-13T11:23:04.935Z,-2.60
2022-12-13T11:25:59.611Z,-2.70
2022-12-13T11:29:42.948Z,-2.60
2022-12-13T11:36:35.650Z,-2.80
2022-12-13T11:46:44.010Z,-2.80
2022-12-13T11:54:24.063Z,-2.80
2022-12-13T12:01:06.538Z,-2.70
2022-12-13T12:07:32.982Z,-3.10
2022-12-13T12:10:28.339Z,-2.40
2022-12-13T12:13:33.617Z,-2.50
2022-12-13T12:21:20.712Z,-2.10
2022-12-13T12:24:57.721Z,-2.60
2022-12-13T12:43:16.970Z,-2.60
2022-12-13T17:37:10.144Z,-4.30
2022-12-13T17:48:16.066Z,-3.50
2022-12-13T17:52:09.579Z,-4.00
2022-12-13T18:57:02.774Z,-4.00
2022-12-13T19:17:00.043Z,-4.10
2022-12-13T19:25:32.030Z,-4.10
2022-12-13T20:38:33.145Z,-4.30
2022-12-13T20:48:23.521Z,-4.40
2022-12-13T20:51:27.958Z,-4.20
2022-12-13T20:54:21.023Z,-4.60
2022-12-13T20:57:47.246Z,-4.60
2022-12-13T21:00:23.313Z,-4.60
2022-12-13T21:03:27.070Z,-5.10
2022-12-13T21:06:14.851Z,-5.30
2022-12-13T21:09:02.696Z,-4.90
2022-12-13T21:12:16.115Z,-5.00
2022-12-13T21:15:02.138Z,-5.10
2022-12-13T21:17:33.240Z,-5.10
2022-12-13T21:20:03.760Z,-4.90
2022-12-13T21:22:41.471Z,-5.00
2022-12-13T21:25:16.602Z,-5.80
2022-12-13T21:27:48.384Z,-5.00
2022-12-13T21:30:16.979Z,-5.40
2022-12-13T21:32:49.849Z,-5.40
2022-12-13T21:35:21.081Z,-4.90
2022-12-13T21:37:49.553Z,-4.80
2022-12-13T21:40:24.298Z,-5.40
2022-12-13T21:42:52.743Z,-5.30
2022-12-13T21:45:21.470Z,-5.60
2022-12-13T21:47:58.060Z,-5.50
2022-12-13T21:50:29.137Z,-5.10
2022-12-13T21:53:20.014Z,-5.60
2022-12-13T21:56:27.043Z,-5.40
2022-12-13T21:59:13.170Z,-5.20
2022-12-13T22:02:04.197Z,-4.80
2022-12-13T22:04:33.128Z,-5.70
2022-12-13T22:07:02.780Z,-5.40
2022-12-13T22:09:31.425Z,-5.50
2022-12-13T22:12:05.761Z,-6.00
2022-12-13T22:14:34.226Z,-5.60
2022-12-13T22:17:03.306Z,-5.90
2022-12-13T22:19:33.825Z,-6.00
2022-12-13T22:22:03.747Z,-6.00
2022-12-13T22:24:32.136Z,-5.30
2022-12-13T22:27:18.433Z,-5.50
2022-12-13T22:29:47.016Z,-5.90
2022-12-13T22:32:15.429Z,-5.10
2022-12-13T22:34:44.079Z,-5.80
2022-12-13T22:37:13.006Z,-5.80
2022-12-13T22:39:41.703Z,-5.80
2022-12-13T22:42:10.038Z,-5.80
2022-12-13T22:44:39.979Z,-5.90
2022-12-13T22:47:08.338Z,-5.80
2022-12-13T22:49:38.556Z,-5.70
2022-12-13T22:52:07.098Z,-5.60
2022-12-13T22:54:35.969Z,-5.90
2022-12-13T23:00:10.344Z,-5.90
2022-12-13T23:02:38.781Z,-6.00
2022-12-13T23:05:08.436Z,-5.90
2022-12-13T23:07:43.212Z,-6.10
2022-12-13T23:10:31.016Z,-6.00
2022-12-13T23:13:20.082Z,-6.10
2022-12-13T23:15:49.977Z,-6.20
2022-12-13T23:18:18.359Z,-6.30
2022-12-13T23:20:48.444Z,-5.90
2022-12-13T23:23:16.958Z,-6.30
2022-12-13T23:25:48.852Z,-6.50
2022-12-13T23:28:17.805Z,-6.40
2022-12-13T23:30:46.334Z,-6.40
2022-12-13T23:33:16.126Z,-6.40
2022-12-13T23:35:44.454Z,-6.40
2022-12-13T23:38:12.880Z,-6.30
2022-12-13T23:40:41.173Z,-6.10
2022-12-13T23:43:09.622Z,-6.10
2022-12-13T23:45:37.844Z,-6.30
2022-12-13T23:48:06.785Z,-6.30
2022-12-13T23:50:36.598Z,-6.30
2022-12-13T23:53:08.249Z,-5.70
2022-12-13T23:55:37.834Z,-6.10
2022-12-13T23:58:06.642Z,-6.40
